Fort Scott, Kansas
Current Conditions -  °F | °C
As of 10:15 AM on Sunday 25 Jan 2015 (Local Time) from KPTS Reporting Station
Overcast Overcast  
Wind Chill: 36°   Ceiling: 2600
Heat Index: 43°   Visibility: 10mi
Dew Point: 34°   Wind: 16mph
Humidity: 70%   Direction: 340°NNW
Pressure: 29.79"   Gusts: 30mph
Location:  37.84°N, 94.7°W
Report Text: KPTS 251615Z AUTO 34014G26KT 10SM BKN026 BKN033 OVC041 06/01 A2979 RMK AO2 T00630011
Loading
Personal Weather Stations






























Interactive Weather Map New forecast layout! Learn more

10-Day Weather Forecast

Advertisements
Track Severe Weather on mobile